createdAt,value
2017-08-22T00:02:21.739Z,93.60
2017-08-22T00:04:49.388Z,93.70
2017-08-22T00:07:17.048Z,93.70
2017-08-22T00:09:44.699Z,93.50
2017-08-22T00:12:12.379Z,93.20
2017-08-22T00:14:39.994Z,93.30
2017-08-22T00:17:07.626Z,93.00
2017-08-22T00:19:35.232Z,93.20
2017-08-22T00:22:02.854Z,93.10
2017-08-22T00:24:30.507Z,93.40
2017-08-22T00:26:58.141Z,93.30
2017-08-22T00:29:25.742Z,93.60
2017-08-22T00:31:53.346Z,93.80
2017-08-22T00:34:21.100Z,93.50
2017-08-22T00:36:48.711Z,93.00
2017-08-22T00:39:16.345Z,93.10
2017-08-22T00:41:43.971Z,93.20
2017-08-22T00:44:11.630Z,93.30
2017-08-22T00:46:39.248Z,93.80
2017-08-22T00:49:06.935Z,94.00
2017-08-22T00:51:34.622Z,94.00
2017-08-22T00:54:02.254Z,94.00
2017-08-22T00:56:29.967Z,93.80
2017-08-22T00:58:57.570Z,93.70
2017-08-22T01:01:25.203Z,94.00
2017-08-22T01:03:52.810Z,94.20
2017-08-22T01:06:20.481Z,94.60
2017-08-22T01:08:48.119Z,94.30
2017-08-22T01:11:15.723Z,94.00
2017-08-22T01:13:43.428Z,94.00
2017-08-22T01:16:11.065Z,93.70
2017-08-22T01:18:38.685Z,93.70
2017-08-22T01:21:06.312Z,93.80
2017-08-22T01:23:33.959Z,93.70
2017-08-22T01:26:01.552Z,93.60
2017-08-22T01:28:29.188Z,93.90
2017-08-22T01:30:56.887Z,93.70
2017-08-22T01:33:24.514Z,93.60
2017-08-22T01:35:52.169Z,93.80
2017-08-22T01:38:19.915Z,93.60
2017-08-22T01:40:47.561Z,93.30
2017-08-22T01:43:15.211Z,93.70
2017-08-22T01:45:42.878Z,93.60
2017-08-22T01:48:10.680Z,93.40
2017-08-22T01:50:38.280Z,93.60
2017-08-22T01:53:05.903Z,93.80
2017-08-22T01:55:33.509Z,94.00
2017-08-22T01:58:01.142Z,93.90
2017-08-22T02:00:28.773Z,93.80
2017-08-22T02:02:56.404Z,93.80
2017-08-22T02:05:24.001Z,93.60
2017-08-22T02:07:51.625Z,93.60
2017-08-22T02:10:19.304Z,93.80
2017-08-22T02:12:46.926Z,94.00
2017-08-22T02:15:14.552Z,94.00
2017-08-22T02:17:42.318Z,94.10
2017-08-22T02:20:09.956Z,94.00
2017-08-22T02:22:37.549Z,94.20
2017-08-22T02:25:05.183Z,93.80
2017-08-22T02:27:32.855Z,93.60
2017-08-22T02:30:00.483Z,93.80
2017-08-22T02:32:28.148Z,94.00
2017-08-22T02:34:55.790Z,94.30
2017-08-22T02:37:23.399Z,93.60
2017-08-22T02:39:51.069Z,93.30
2017-08-22T02:42:18.689Z,93.30
2017-08-22T02:44:46.293Z,93.30
2017-08-22T02:47:13.892Z,93.50
2017-08-22T02:49:41.563Z,93.90
2017-08-22T02:52:09.174Z,93.00
2017-08-22T02:54:37.551Z,92.50
2017-08-22T02:57:05.202Z,92.50
2017-08-22T02:59:32.839Z,93.20
2017-08-22T03:02:00.524Z,93.00
2017-08-22T03:04:28.138Z,92.60
2017-08-22T03:06:55.764Z,93.30
2017-08-22T03:09:23.386Z,93.10
2017-08-22T03:11:51.096Z,92.60
2017-08-22T03:14:18.709Z,91.70
2017-08-22T03:16:46.329Z,92.40
2017-08-22T03:19:13.955Z,92.30
2017-08-22T03:21:41.592Z,92.50
2017-08-22T03:24:09.266Z,92.00
2017-08-22T03:26:36.867Z,91.70
2017-08-22T03:29:04.524Z,91.90
2017-08-22T03:31:32.120Z,92.00
2017-08-22T03:33:59.778Z,91.80
2017-08-22T03:36:27.416Z,91.70
2017-08-22T03:38:55.073Z,91.80
2017-08-22T03:41:22.718Z,91.90
2017-08-22T03:43:50.300Z,92.80
2017-08-22T03:46:17.910Z,92.40
2017-08-22T03:48:45.506Z,92.50
2017-08-22T03:51:13.133Z,91.60
2017-08-22T03:53:40.724Z,91.50
2017-08-22T03:56:08.427Z,91.30
2017-08-22T03:58:36.017Z,91.60
2017-08-22T04:01:03.628Z,91.40
2017-08-22T04:03:31.228Z,91.30
2017-08-22T04:05:58.823Z,91.40
2017-08-22T04:08:26.419Z,91.40
2017-08-22T04:10:54.040Z,91.00
2017-08-22T04:13:21.684Z,91.20
2017-08-22T04:15:49.307Z,91.20
2017-08-22T04:18:16.896Z,91.00
2017-08-22T04:20:44.530Z,91.00
2017-08-22T04:23:12.117Z,91.70
2017-08-22T04:25:39.729Z,91.60
2017-08-22T04:28:07.401Z,91.30
2017-08-22T04:30:35.888Z,91.70
2017-08-22T04:33:03.498Z,91.70
2017-08-22T04:35:31.073Z,91.40
2017-08-22T04:37:58.691Z,91.50
2017-08-22T04:40:26.315Z,91.60
2017-08-22T04:42:53.902Z,91.50
2017-08-22T04:45:21.529Z,92.00
2017-08-22T04:47:49.111Z,91.80
2017-08-22T04:50:16.729Z,91.30
2017-08-22T04:52:44.312Z,91.20
2017-08-22T04:55:11.919Z,91.30
2017-08-22T04:57:39.499Z,91.20
2017-08-22T05:00:07.150Z,91.40
2017-08-22T05:02:34.810Z,91.20
2017-08-22T05:05:02.408Z,91.20
2017-08-22T05:07:29.988Z,91.10
2017-08-22T05:09:57.665Z,91.40
2017-08-22T05:12:25.251Z,90.80
2017-08-22T05:14:52.823Z,91.50
2017-08-22T05:17:20.436Z,90.80
2017-08-22T05:19:48.004Z,90.70
2017-08-22T05:22:15.630Z,90.70
2017-08-22T05:24:43.267Z,91.00
2017-08-22T05:27:10.848Z,90.80
2017-08-22T05:29:38.499Z,90.90
2017-08-22T05:32:06.219Z,90.90
2017-08-22T05:34:33.878Z,90.60
2017-08-22T05:37:01.459Z,91.00
2017-08-22T05:39:29.066Z,90.50
2017-08-22T05:41:56.683Z,90.40
2017-08-22T05:44:24.251Z,90.50
2017-08-22T05:46:53.567Z,90.60
2017-08-22T05:49:21.213Z,90.50
2017-08-22T05:51:48.826Z,90.40
2017-08-22T05:54:16.412Z,90.60
2017-08-22T05:56:44.002Z,90.50
2017-08-22T05:59:13.160Z,90.20
2017-08-22T06:01:40.801Z,90.30
2017-08-22T06:04:09.440Z,90.00
2017-08-22T06:06:37.055Z,90.00
2017-08-22T06:09:05.705Z,89.50
2017-08-22T06:11:33.570Z,89.80
2017-08-22T06:14:01.196Z,89.50
2017-08-22T06:16:28.786Z,88.60
2017-08-22T06:18:56.485Z,89.30
2017-08-22T06:21:24.080Z,88.00
2017-08-22T06:23:51.685Z,88.40
2017-08-22T06:26:28.315Z,87.40
2017-08-22T06:28:55.982Z,87.30
2017-08-22T06:31:23.629Z,86.40
2017-08-22T06:33:51.212Z,85.40
2017-08-22T06:36:18.843Z,86.50
2017-08-22T06:38:46.480Z,87.70
2017-08-22T06:41:14.072Z,86.20
2017-08-22T06:43:41.722Z,83.90
2017-08-22T06:46:09.298Z,82.50
2017-08-22T06:48:36.939Z,81.70
2017-08-22T06:51:04.534Z,81.70
2017-08-22T06:53:32.196Z,81.70
2017-08-22T06:55:59.789Z,80.60
2017-08-22T06:58:27.378Z,83.10
2017-08-22T07:00:55.033Z,82.20
2017-08-22T07:03:22.622Z,82.60
2017-08-22T07:05:50.219Z,80.60
2017-08-22T07:08:17.881Z,79.10
2017-08-22T07:10:45.524Z,80.30
2017-08-22T07:13:13.094Z,80.00
2017-08-22T07:15:40.716Z,80.00
2017-08-22T07:18:08.335Z,80.40
2017-08-22T07:20:35.933Z,80.10
2017-08-22T07:23:03.606Z,78.00
2017-08-22T07:25:31.189Z,77.90
2017-08-22T07:27:58.800Z,74.20
2017-08-22T07:30:26.396Z,74.50
2017-08-22T07:32:54.016Z,72.40
2017-08-22T07:35:22.800Z,72.60
2017-08-22T07:37:50.442Z,72.30
2017-08-22T07:40:18.089Z,70.00
2017-08-22T07:42:45.702Z,64.50
2017-08-22T07:45:13.413Z,60.00
2017-08-22T07:47:41.033Z,59.90
2017-08-22T07:50:08.676Z,57.50
2017-08-22T07:52:36.303Z,58.50
2017-08-22T07:55:03.915Z,59.20
2017-08-22T07:57:31.572Z,57.50
2017-08-22T07:59:59.193Z,56.50
2017-08-22T08:02:26.807Z,55.10
2017-08-22T08:04:54.415Z,52.80
2017-08-22T08:07:22.017Z,54.00
2017-08-22T08:09:49.623Z,55.90
2017-08-22T08:12:17.282Z,53.60
2017-08-22T08:14:44.913Z,54.90
2017-08-22T08:17:12.515Z,55.80
2017-08-22T08:19:40.153Z,54.20
2017-08-22T08:22:07.787Z,54.30
2017-08-22T08:24:35.406Z,52.60
2017-08-22T08:27:03.028Z,55.10
2017-08-22T08:29:30.665Z,51.90
2017-08-22T08:31:58.302Z,54.90
2017-08-22T08:34:25.893Z,52.30
2017-08-22T08:36:53.517Z,50.80
2017-08-22T08:39:21.199Z,51.80
2017-08-22T08:41:48.825Z,52.00
2017-08-22T08:44:16.410Z,54.80
2017-08-22T08:46:44.037Z,52.70
2017-08-22T08:49:11.645Z,51.00
2017-08-22T08:51:39.214Z,52.80
2017-08-22T08:54:06.817Z,50.10
2017-08-22T08:56:34.392Z,50.30
2017-08-22T08:59:02.018Z,50.50
2017-08-22T09:01:29.849Z,49.80
2017-08-22T09:03:58.776Z,51.90
2017-08-22T09:06:26.539Z,52.90
2017-08-22T09:08:54.379Z,54.10
2017-08-22T09:11:22.000Z,54.80
2017-08-22T09:13:49.755Z,53.80
2017-08-22T09:16:17.466Z,53.80
2017-08-22T09:18:45.202Z,52.00
2017-08-22T09:21:13.107Z,51.50
2017-08-22T09:23:40.770Z,53.40
2017-08-22T09:26:08.427Z,52.00
2017-08-22T09:28:36.064Z,52.70
2017-08-22T09:31:03.713Z,49.40
2017-08-22T09:33:31.301Z,47.40
2017-08-22T09:35:58.890Z,46.10
2017-08-22T09:38:26.525Z,45.10
2017-08-22T09:40:54.531Z,48.00
2017-08-22T09:43:22.141Z,48.60
2017-08-22T09:45:49.773Z,48.50
2017-08-22T09:48:17.381Z,45.80
2017-08-22T09:50:44.971Z,44.60
2017-08-22T09:53:12.632Z,46.30
2017-08-22T09:55:40.217Z,44.20
2017-08-22T09:58:07.846Z,43.60
2017-08-22T10:00:35.488Z,46.00
2017-08-22T10:03:03.163Z,45.50
2017-08-22T10:05:30.752Z,45.30
2017-08-22T10:07:58.368Z,43.70
2017-08-22T10:10:26.048Z,44.50
2017-08-22T10:12:53.638Z,46.10
2017-08-22T10:15:21.270Z,45.30
2017-08-22T10:18:25.912Z,45.40
2017-08-22T10:20:53.531Z,43.90
2017-08-22T10:23:21.110Z,46.50
2017-08-22T10:25:48.724Z,45.70
2017-08-22T10:28:16.330Z,43.60
2017-08-22T10:30:44.054Z,45.20
2017-08-22T10:33:11.684Z,44.20
2017-08-22T10:35:39.430Z,45.30
2017-08-22T10:38:07.023Z,45.00
2017-08-22T10:40:34.610Z,46.90
2017-08-22T10:43:02.284Z,46.00
2017-08-22T10:45:29.887Z,45.10
2017-08-22T10:47:57.497Z,44.30
2017-08-22T10:50:25.085Z,41.40
2017-08-22T10:52:52.745Z,43.70
2017-08-22T10:55:20.363Z,43.30
2017-08-22T10:57:47.966Z,40.70
2017-08-22T11:00:15.561Z,41.40
2017-08-22T11:02:43.168Z,40.10
2017-08-22T11:05:10.911Z,44.00
2017-08-22T11:07:38.530Z,39.10
2017-08-22T11:10:06.135Z,40.30
2017-08-22T11:12:33.712Z,41.70
2017-08-22T11:15:01.358Z,44.30
2017-08-22T11:17:28.935Z,44.50
2017-08-22T11:19:56.519Z,46.50
2017-08-22T11:22:24.184Z,48.70
2017-08-22T11:24:51.848Z,49.30
2017-08-22T11:27:19.461Z,48.20
2017-08-22T11:29:47.043Z,47.60
2017-08-22T11:32:14.686Z,47.50
2017-08-22T11:34:42.339Z,48.00
2017-08-22T11:37:10.057Z,45.30
2017-08-22T11:39:37.782Z,45.40
2017-08-22T11:42:05.633Z,46.70
2017-08-22T11:44:33.270Z,48.90
2017-08-22T11:47:00.941Z,47.80
2017-08-22T11:49:28.568Z,48.60
2017-08-22T11:51:56.139Z,48.80
2017-08-22T11:54:23.731Z,48.40
2017-08-22T11:56:51.366Z,46.40
2017-08-22T11:59:19.712Z,46.10
2017-08-22T12:01:47.305Z,46.10
2017-08-22T12:04:14.901Z,44.20
2017-08-22T12:06:42.508Z,44.40
2017-08-22T12:09:10.117Z,45.50
2017-08-22T12:11:37.722Z,44.70
2017-08-22T12:14:05.350Z,44.70
2017-08-22T12:16:32.975Z,46.00
2017-08-22T12:19:00.667Z,45.90
2017-08-22T12:21:28.281Z,45.90
2017-08-22T12:23:55.903Z,46.00
2017-08-22T12:26:23.554Z,47.90
2017-08-22T12:28:51.186Z,48.40
2017-08-22T12:31:18.792Z,49.20
2017-08-22T12:33:46.426Z,47.10
2017-08-22T12:36:14.074Z,48.20
2017-08-22T12:38:41.735Z,49.00
2017-08-22T12:41:09.399Z,48.60
2017-08-22T12:43:37.031Z,48.80
2017-08-22T12:46:04.652Z,48.10
2017-08-22T12:48:32.239Z,46.30
2017-08-22T12:50:59.898Z,46.80
2017-08-22T12:53:27.483Z,46.20
2017-08-22T12:55:55.123Z,46.70
2017-08-22T12:58:22.807Z,45.50
2017-08-22T13:00:50.435Z,44.80
2017-08-22T13:03:18.038Z,45.50
2017-08-22T13:05:45.662Z,45.90
2017-08-22T13:08:13.259Z,46.40
2017-08-22T13:10:40.907Z,45.40
2017-08-22T13:13:08.524Z,48.00
2017-08-22T13:15:36.181Z,45.60
2017-08-22T13:18:04.126Z,45.50
2017-08-22T13:20:31.713Z,46.50
2017-08-22T13:22:59.405Z,47.60
2017-08-22T13:25:27.007Z,45.10
2017-08-22T13:27:54.620Z,46.90
2017-08-22T13:30:22.217Z,47.60
2017-08-22T13:32:49.963Z,47.20
2017-08-22T13:35:17.608Z,47.50
2017-08-22T13:37:45.222Z,45.80
2017-08-22T13:40:12.885Z,47.60
2017-08-22T13:42:40.558Z,46.30
2017-08-22T13:45:08.165Z,46.10
2017-08-22T13:47:35.882Z,47.00
2017-08-22T13:50:03.464Z,46.50
2017-08-22T13:52:31.076Z,46.80
2017-08-22T13:54:58.678Z,46.90
2017-08-22T13:57:26.308Z,46.90
2017-08-22T13:59:54.817Z,48.50
2017-08-22T14:02:22.413Z,46.00
2017-08-22T14:04:50.038Z,47.00
2017-08-22T14:07:17.607Z,48.20
2017-08-22T14:09:45.252Z,48.70
2017-08-22T14:12:12.850Z,45.80
2017-08-22T14:14:40.518Z,45.80
2017-08-22T14:17:08.102Z,47.90
2017-08-22T14:19:35.732Z,47.90
2017-08-22T14:22:03.411Z,47.00
2017-08-22T14:24:31.011Z,46.50
2017-08-22T14:26:58.636Z,46.80
2017-08-22T14:29:26.245Z,45.90
2017-08-22T14:31:53.890Z,47.40
2017-08-22T14:34:21.486Z,48.10
2017-08-22T14:36:49.086Z,47.10
2017-08-22T14:39:16.683Z,47.70
2017-08-22T14:41:44.293Z,48.30
2017-08-22T14:44:11.894Z,47.20
2017-08-22T14:46:39.502Z,48.00
2017-08-22T14:49:07.077Z,48.20
2017-08-22T14:51:34.667Z,47.80
2017-08-22T14:54:02.289Z,47.10
2017-08-22T14:56:29.881Z,47.10
2017-08-22T14:58:57.510Z,49.80
2017-08-22T15:01:25.114Z,49.60
2017-08-22T15:03:52.722Z,49.70
2017-08-22T15:06:20.328Z,47.70
2017-08-22T15:08:47.972Z,48.20
2017-08-22T15:11:15.577Z,47.80
2017-08-22T15:13:43.208Z,48.30
2017-08-22T15:16:11.563Z,48.50
2017-08-22T15:18:39.152Z,48.50
2017-08-22T15:21:06.792Z,49.20
2017-08-22T15:23:34.421Z,48.90
2017-08-22T15:26:02.107Z,47.70
2017-08-22T15:28:29.721Z,47.90
2017-08-22T15:30:57.320Z,47.60
2017-08-22T15:33:24.997Z,49.20
2017-08-22T15:35:52.618Z,49.30
2017-08-22T15:38:20.210Z,49.10
2017-08-22T15:40:47.866Z,48.20
2017-08-22T15:43:15.447Z,48.70
2017-08-22T15:45:43.090Z,47.60
2017-08-22T15:48:10.717Z,48.30
2017-08-22T15:50:38.338Z,48.40
2017-08-22T15:53:05.939Z,48.00
2017-08-22T15:55:33.559Z,49.10
2017-08-22T15:58:01.195Z,48.60
2017-08-22T16:00:28.855Z,48.70
2017-08-22T16:02:56.456Z,49.90
2017-08-22T16:05:24.132Z,48.20
2017-08-22T16:07:51.749Z,47.80
2017-08-22T16:10:19.365Z,47.30
2017-08-22T16:12:47.045Z,47.90
2017-08-22T16:15:14.661Z,47.50
2017-08-22T16:17:42.266Z,48.40
2017-08-22T16:20:09.912Z,47.90
2017-08-22T16:22:37.488Z,48.00
2017-08-22T16:25:05.083Z,48.00
2017-08-22T16:27:32.704Z,48.00
2017-08-22T16:30:00.374Z,47.00
2017-08-22T16:32:27.961Z,47.80
2017-08-22T16:34:55.531Z,48.70
2017-08-22T16:37:23.174Z,49.60
2017-08-22T16:39:50.768Z,49.50
2017-08-22T16:42:18.340Z,50.20
2017-08-22T16:44:46.043Z,50.50
2017-08-22T16:47:13.646Z,51.50
2017-08-22T16:49:41.285Z,51.00
2017-08-22T16:52:08.936Z,51.10
2017-08-22T16:54:36.523Z,51.70
2017-08-22T16:57:04.156Z,52.50
2017-08-22T16:59:31.787Z,52.20
2017-08-22T17:01:59.464Z,52.20
2017-08-22T17:04:27.082Z,51.80
2017-08-22T17:06:54.782Z,51.40
2017-08-22T17:09:22.424Z,52.10
2017-08-22T17:11:50.042Z,51.10
2017-08-22T17:14:17.625Z,50.80
2017-08-22T17:16:45.302Z,51.30
2017-08-22T17:19:12.940Z,50.80
2017-08-22T17:21:40.564Z,51.20
2017-08-22T17:24:08.269Z,51.10
2017-08-22T17:26:35.956Z,51.50
2017-08-22T17:29:03.578Z,51.40
2017-08-22T17:31:31.212Z,52.80
2017-08-22T17:33:58.832Z,54.40
2017-08-22T17:36:26.481Z,53.80
2017-08-22T17:38:54.104Z,54.40
2017-08-22T17:41:21.800Z,54.70
2017-08-22T17:43:49.388Z,55.10
2017-08-22T17:46:17.003Z,55.60
2017-08-22T17:48:44.789Z,56.00
2017-08-22T17:51:12.485Z,56.40
2017-08-22T17:53:40.078Z,56.90
2017-08-22T17:56:07.672Z,56.80
2017-08-22T17:58:35.312Z,57.00
2017-08-22T18:01:02.960Z,57.40
2017-08-22T18:03:30.532Z,57.30
2017-08-22T18:05:58.184Z,57.10
2017-08-22T18:08:25.808Z,57.30
2017-08-22T18:10:53.425Z,57.00
2017-08-22T18:13:21.061Z,57.40
2017-08-22T18:15:48.654Z,57.40
2017-08-22T18:18:16.282Z,57.70
2017-08-22T18:20:43.875Z,57.80
2017-08-22T18:23:11.555Z,57.90
2017-08-22T18:25:39.156Z,58.20
2017-08-22T18:28:06.761Z,58.20
2017-08-22T18:30:34.435Z,58.50
2017-08-22T18:33:02.045Z,58.80
2017-08-22T18:35:29.665Z,58.80
2017-08-22T18:37:57.276Z,58.90
2017-08-22T18:40:24.885Z,59.50
2017-08-22T18:42:52.534Z,59.70
2017-08-22T18:45:20.161Z,59.70
2017-08-22T18:47:47.775Z,59.90
2017-08-22T18:50:15.421Z,60.40
2017-08-22T18:52:43.058Z,60.60
2017-08-22T18:55:10.737Z,60.80
2017-08-22T18:57:38.346Z,61.20
2017-08-22T19:00:06.048Z,61.20
2017-08-22T19:02:33.682Z,61.50
2017-08-22T19:05:01.351Z,61.60
2017-08-22T19:07:28.983Z,61.70
2017-08-22T19:09:56.649Z,62.20
2017-08-22T19:12:24.304Z,62.00
2017-08-22T19:14:51.904Z,62.70
2017-08-22T19:17:19.581Z,63.10
2017-08-22T19:19:47.204Z,62.40
2017-08-22T19:22:14.841Z,62.50
2017-08-22T19:24:42.530Z,63.30
2017-08-22T19:27:10.212Z,63.40
2017-08-22T19:29:37.834Z,62.80
2017-08-22T19:32:05.472Z,64.10
2017-08-22T19:34:33.097Z,63.70
2017-08-22T19:37:00.713Z,63.50
2017-08-22T19:39:28.360Z,63.70
2017-08-22T19:41:55.976Z,63.90
2017-08-22T19:44:23.679Z,64.00
2017-08-22T19:46:51.296Z,64.20
2017-08-22T19:49:18.912Z,64.40
2017-08-22T19:51:46.600Z,64.90
2017-08-22T19:54:14.247Z,65.10
2017-08-22T19:56:41.924Z,67.00
2017-08-22T19:59:09.532Z,65.60
2017-08-22T20:01:37.231Z,65.90
2017-08-22T20:04:04.904Z,66.20
2017-08-22T20:06:32.548Z,66.30
2017-08-22T20:09:00.175Z,66.90
2017-08-22T20:11:27.804Z,67.00
2017-08-22T20:13:55.422Z,66.90
2017-08-22T20:16:23.053Z,67.40
2017-08-22T20:18:50.684Z,68.20
2017-08-22T20:21:18.272Z,68.10
2017-08-22T20:23:45.904Z,68.00
2017-08-22T20:26:13.543Z,68.40
2017-08-22T20:28:41.181Z,68.80
2017-08-22T20:31:08.868Z,68.70
2017-08-22T20:33:36.551Z,68.60
2017-08-22T20:36:04.170Z,68.60
2017-08-22T20:38:31.779Z,68.50
2017-08-22T20:40:59.427Z,69.10
2017-08-22T20:43:27.035Z,70.40
2017-08-22T20:45:54.690Z,70.30
2017-08-22T20:48:22.364Z,70.10
2017-08-22T20:50:49.961Z,70.40
2017-08-22T20:53:17.584Z,70.30
2017-08-22T20:55:45.324Z,71.50
2017-08-22T20:58:12.939Z,71.20
2017-08-22T21:00:40.534Z,72.30
2017-08-22T21:03:08.213Z,73.30
2017-08-22T21:05:35.888Z,72.00
2017-08-22T21:08:03.651Z,72.30
2017-08-22T21:10:31.295Z,73.10
2017-08-22T21:12:59.007Z,73.80
2017-08-22T21:15:26.670Z,73.80
2017-08-22T21:17:54.401Z,74.80
2017-08-22T21:20:22.063Z,73.40
2017-08-22T21:22:49.690Z,72.80
2017-08-22T21:25:17.345Z,74.20
2017-08-22T21:27:44.955Z,74.40
2017-08-22T21:30:12.600Z,74.50
2017-08-22T21:32:40.240Z,74.20
2017-08-22T21:35:07.867Z,75.10
2017-08-22T21:37:35.504Z,76.10
2017-08-22T21:40:03.148Z,74.60
2017-08-22T21:42:30.749Z,75.30
2017-08-22T21:44:58.404Z,75.00
2017-08-22T21:47:26.066Z,74.60
2017-08-22T21:49:54.440Z,78.30
2017-08-22T21:52:22.098Z,78.30
2017-08-22T21:54:49.754Z,78.70
2017-08-22T21:57:17.366Z,78.60
2017-08-22T21:59:45.004Z,78.30
2017-08-22T22:02:12.652Z,78.20
2017-08-22T22:04:40.265Z,76.70
2017-08-22T22:07:07.872Z,77.80
2017-08-22T22:09:35.585Z,77.90
2017-08-22T22:12:03.248Z,77.60
2017-08-22T22:14:30.946Z,78.40
2017-08-22T22:16:58.663Z,79.40
2017-08-22T22:19:26.266Z,80.30
2017-08-22T22:21:53.888Z,80.70
2017-08-22T22:24:21.580Z,81.30
2017-08-22T22:26:49.215Z,82.30
2017-08-22T22:29:16.824Z,79.90
2017-08-22T22:31:44.492Z,79.00
2017-08-22T22:34:12.152Z,79.60
2017-08-22T22:36:39.755Z,78.30
2017-08-22T22:39:07.480Z,78.50
2017-08-22T22:41:35.062Z,78.50
2017-08-22T22:44:02.748Z,81.00
2017-08-22T22:46:30.441Z,81.40
2017-08-22T22:48:58.070Z,83.00
2017-08-22T22:51:25.664Z,83.20
2017-08-22T22:53:53.284Z,83.50
2017-08-22T22:56:20.908Z,83.20
2017-08-22T22:58:48.506Z,84.10
2017-08-22T23:01:16.163Z,83.00
2017-08-22T23:03:43.810Z,84.40
2017-08-22T23:06:11.461Z,84.10
2017-08-22T23:08:39.098Z,84.10
2017-08-22T23:11:06.786Z,82.40
2017-08-22T23:13:34.415Z,84.20
2017-08-22T23:16:02.104Z,84.60
2017-08-22T23:18:29.766Z,84.80
2017-08-22T23:20:57.373Z,84.60
2017-08-22T23:23:25.006Z,84.20
2017-08-22T23:25:52.612Z,84.10
2017-08-22T23:28:20.230Z,85.10
2017-08-22T23:30:47.974Z,85.90
2017-08-22T23:33:15.575Z,84.20
2017-08-22T23:35:43.180Z,83.90
2017-08-22T23:38:10.842Z,84.90
2017-08-22T23:40:38.446Z,84.80
2017-08-22T23:43:06.046Z,83.30
2017-08-22T23:45:33.721Z,83.00
2017-08-22T23:48:01.338Z,84.10
2017-08-22T23:50:28.907Z,82.90
2017-08-22T23:52:56.530Z,84.00
2017-08-22T23:55:24.134Z,83.80
2017-08-22T23:57:51.713Z,83.80
